sensor_id;sensor_type;location;lat;lon;timestamp;pressure;altitude;pressure_sealevel;temperature;humidity
78016;BME280;67223;51.102;5.882;2023-02-28T00:00:47;102830.03;;;0.50;67.22
78016;BME280;67223;51.102;5.882;2023-02-28T00:03:12;102831.78;;;0.54;66.75
78016;BME280;67223;51.102;5.882;2023-02-28T00:05:38;102829.25;;;0.39;67.82
78016;BME280;67223;51.102;5.882;2023-02-28T00:08:03;102831.88;;;0.37;68.21
78016;BME280;67223;51.102;5.882;2023-02-28T00:10:31;102828.47;;;0.26;68.35
78016;BME280;67223;51.102;5.882;2023-02-28T00:13:02;102827.59;;;0.27;68.23
78016;BME280;67223;51.102;5.882;2023-02-28T00:15:28;102831.06;;;0.32;68.31
78016;BME280;67223;51.102;5.882;2023-02-28T00:17:54;102826.66;;;0.33;68.07
78016;BME280;67223;51.102;5.882;2023-02-28T00:20:19;102832.00;;;0.21;68.62
78016;BME280;67223;51.102;5.882;2023-02-28T00:22:47;102831.13;;;0.25;68.49
78016;BME280;67223;51.102;5.882;2023-02-28T00:25:15;102840.72;;;0.29;68.28
78016;BME280;67223;51.102;5.882;2023-02-28T00:27:41;102832.94;;;0.14;68.64
78016;BME280;67223;51.102;5.882;2023-02-28T00:30:10;102832.09;;;0.06;68.41
78016;BME280;67223;51.102;5.882;2023-02-28T00:32:36;102827.69;;;0.11;68.57
78016;BME280;67223;51.102;5.882;2023-02-28T00:35:02;102825.97;;;0.07;69.07
78016;BME280;67223;51.102;5.882;2023-02-28T00:37:28;102826.88;;;0.03;68.97
78016;BME280;67223;51.102;5.882;2023-02-28T00:39:53;102830.38;;;0.05;69.44
78016;BME280;67223;51.102;5.882;2023-02-28T00:42:18;102833.03;;;0.00;69.23
78016;BME280;67223;51.102;5.882;2023-02-28T00:44:44;102836.47;;;0.08;69.28
78016;BME280;67223;51.102;5.882;2023-02-28T00:47:09;102836.50;;;0.02;69.26
78016;BME280;67223;51.102;5.882;2023-02-28T00:49:35;102840.06;;;-0.05;69.30
78016;BME280;67223;51.102;5.882;2023-02-28T00:52:00;102833.91;;;-0.03;69.66
78016;BME280;67223;51.102;5.882;2023-02-28T00:54:26;102835.75;;;-0.15;70.29
78016;BME280;67223;51.102;5.882;2023-02-28T00:56:51;102836.59;;;-0.12;70.21
78016;BME280;67223;51.102;5.882;2023-02-28T00:59:17;102829.56;;;-0.07;70.18
78016;BME280;67223;51.102;5.882;2023-02-28T01:01:44;102842.75;;;-0.22;70.10
78016;BME280;67223;51.102;5.882;2023-02-28T01:04:10;102833.97;;;-0.15;70.10
78016;BME280;67223;51.102;5.882;2023-02-28T01:06:36;102839.19;;;-0.06;69.65
78016;BME280;67223;51.102;5.882;2023-02-28T01:09:02;102847.09;;;-0.13;70.06
78016;BME280;67223;51.102;5.882;2023-02-28T01:11:27;102846.22;;;-0.12;69.75
78016;BME280;67223;51.102;5.882;2023-02-28T01:13:53;102855.84;;;-0.13;68.88
78016;BME280;67223;51.102;5.882;2023-02-28T01:16:18;102849.72;;;-0.15;69.86
78016;BME280;67223;51.102;5.882;2023-02-28T01:18:44;102842.72;;;-0.19;70.49
78016;BME280;67223;51.102;5.882;2023-02-28T01:21:12;102848.00;;;-0.25;70.72
78016;BME280;67223;51.102;5.882;2023-02-28T01:23:39;102848.88;;;-0.23;70.36
78016;BME280;67223;51.102;5.882;2023-02-28T01:26:10;102849.75;;;-0.24;70.55
78016;BME280;67223;51.102;5.882;2023-02-28T01:28:36;102847.97;;;-0.19;70.16
78016;BME280;67223;51.102;5.882;2023-02-28T01:31:02;102847.16;;;-0.28;70.58
78016;BME280;67223;51.102;5.882;2023-02-28T01:33:28;102845.41;;;-0.29;70.43
78016;BME280;67223;51.102;5.882;2023-02-28T01:38:37;102846.34;;;-0.44;71.19
78016;BME280;67223;51.102;5.882;2023-02-28T01:41:04;102845.47;;;-0.43;71.29
78016;BME280;67223;51.102;5.882;2023-02-28T01:43:31;102846.34;;;-0.41;70.62
78016;BME280;67223;51.102;5.882;2023-02-28T01:45:58;102836.69;;;-0.39;70.71
78016;BME280;67223;51.102;5.882;2023-02-28T01:48:36;102838.53;;;-0.56;71.94
78016;BME280;67223;51.102;5.882;2023-02-28T01:51:11;102840.28;;;-0.63;71.65
78016;BME280;67223;51.102;5.882;2023-02-28T01:53:43;102831.56;;;-0.62;71.72
78016;BME280;67223;51.102;5.882;2023-02-28T01:56:11;102828.94;;;-0.74;72.12
78016;BME280;67223;51.102;5.882;2023-02-28T01:58:38;102828.97;;;-0.84;72.25
78016;BME280;67223;51.102;5.882;2023-02-28T02:01:04;102826.34;;;-0.84;72.75
78016;BME280;67223;51.102;5.882;2023-02-28T02:03:30;102818.50;;;-0.75;71.68
78016;BME280;67223;51.102;5.882;2023-02-28T02:05:56;102824.56;;;-0.66;72.16
78016;BME280;67223;51.102;5.882;2023-02-28T02:08:26;102826.28;;;-0.57;71.74
78016;BME280;67223;51.102;5.882;2023-02-28T02:11:01;102818.44;;;-0.66;72.46
78016;BME280;67223;51.102;5.882;2023-02-28T02:25:47;102820.19;;;-0.67;72.21
78016;BME280;67223;51.102;5.882;2023-02-28T02:28:55;102814.06;;;-0.61;72.25
78016;BME280;67223;51.102;5.882;2023-02-28T02:31:38;102802.69;;;-0.56;72.54
78016;BME280;67223;51.102;5.882;2023-02-28T02:35:34;102806.25;;;-0.75;72.12
78016;BME280;67223;51.102;5.882;2023-02-28T02:37:43;102801.03;;;-0.85;72.47
78016;BME280;67223;51.102;5.882;2023-02-28T02:40:21;102804.47;;;-0.74;73.62
78016;BME280;67223;51.102;5.882;2023-02-28T02:42:58;102807.13;;;-0.80;72.95
78016;BME280;67223;51.102;5.882;2023-02-28T02:45:33;102804.47;;;-0.71;72.40
78016;BME280;67223;51.102;5.882;2023-02-28T02:48:02;102801.00;;;-0.78;73.57
78016;BME280;67223;51.102;5.882;2023-02-28T02:50:58;102814.16;;;-0.85;72.78
78016;BME280;67223;51.102;5.882;2023-02-28T02:53:30;102802.75;;;-0.78;73.12
78016;BME280;67223;51.102;5.882;2023-02-28T02:55:59;102811.53;;;-0.85;72.67
78016;BME280;67223;51.102;5.882;2023-02-28T02:58:29;102798.41;;;-0.87;73.05
78016;BME280;67223;51.102;5.882;2023-02-28T03:03:32;102811.53;;;-0.95;72.79
78016;BME280;67223;51.102;5.882;2023-02-28T03:06:00;102805.41;;;-0.86;72.72
78016;BME280;67223;51.102;5.882;2023-02-28T03:08:26;102804.50;;;-0.79;73.08
78016;BME280;67223;51.102;5.882;2023-02-28T03:10:57;102812.41;;;-0.94;73.40
78016;BME280;67223;51.102;5.882;2023-02-28T03:22:00;102808.03;;;-0.94;73.22
78016;BME280;67223;51.102;5.882;2023-02-28T03:24:48;102801.91;;;-0.90;72.63
78016;BME280;67223;51.102;5.882;2023-02-28T03:27:27;102799.31;;;-0.96;73.76
78016;BME280;67223;51.102;5.882;2023-02-28T03:30:09;102803.69;;;-0.96;73.22
78016;BME280;67223;51.102;5.882;2023-02-28T03:32:53;102803.66;;;-0.92;74.27
78016;BME280;67223;51.102;5.882;2023-02-28T03:35:26;102812.44;;;-1.00;73.55
78016;BME280;67223;51.102;5.882;2023-02-28T03:38:04;102809.81;;;-1.09;73.72
78016;BME280;67223;51.102;5.882;2023-02-28T03:40:33;102812.47;;;-1.15;73.94
78016;BME280;67223;51.102;5.882;2023-02-28T03:43:07;102809.84;;;-1.17;74.67
78016;BME280;67223;51.102;5.882;2023-02-28T03:45:36;102816.84;;;-1.22;74.39
78016;BME280;67223;51.102;5.882;2023-02-28T03:48:09;102811.56;;;-1.05;74.69
78016;BME280;67223;51.102;5.882;2023-02-28T03:50:39;102814.19;;;-1.14;73.94
78016;BME280;67223;51.102;5.882;2023-02-28T03:53:13;102822.94;;;-1.18;75.40
78016;BME280;67223;51.102;5.882;2023-02-28T03:58:51;102805.47;;;-1.16;75.05
78016;BME280;67223;51.102;5.882;2023-02-28T04:01:38;102806.31;;;-1.19;74.70
78016;BME280;67223;51.102;5.882;2023-02-28T04:04:07;102812.44;;;-1.24;74.13
78016;BME280;67223;51.102;5.882;2023-02-28T04:06:33;102807.22;;;-1.21;74.64
78016;BME280;67223;51.102;5.882;2023-02-28T04:08:58;102815.06;;;-1.24;74.40
78016;BME280;67223;51.102;5.882;2023-02-28T04:11:42;102810.72;;;-1.33;74.87
78016;BME280;67223;51.102;5.882;2023-02-28T04:14:10;102807.25;;;-1.35;74.73
78016;BME280;67223;51.102;5.882;2023-02-28T04:16:38;102801.13;;;-1.46;75.17
78016;BME280;67223;51.102;5.882;2023-02-28T04:19:04;102807.22;;;-1.38;75.84
78016;BME280;67223;51.102;5.882;2023-02-28T04:21:51;102803.75;;;-1.46;75.16
78016;BME280;67223;51.102;5.882;2023-02-28T04:24:23;102812.50;;;-1.55;75.94
78016;BME280;67223;51.102;5.882;2023-02-28T04:26:51;102809.84;;;-1.62;75.65
78016;BME280;67223;51.102;5.882;2023-02-28T04:29:25;102812.47;;;-1.68;76.42
78016;BME280;67223;51.102;5.882;2023-02-28T04:31:51;102816.84;;;-1.55;74.83
78016;BME280;67223;51.102;5.882;2023-02-28T04:34:19;102821.19;;;-1.53;75.08
78016;BME280;67223;51.102;5.882;2023-02-28T04:36:45;102817.72;;;-1.47;75.54
78016;BME280;67223;51.102;5.882;2023-02-28T04:39:11;102816.84;;;-1.52;74.93
78016;BME280;67223;51.102;5.882;2023-02-28T04:41:37;102818.56;;;-1.54;74.85
78016;BME280;67223;51.102;5.882;2023-02-28T04:44:02;102814.22;;;-1.63;76.04
78016;BME280;67223;51.102;5.882;2023-02-28T04:46:28;102823.81;;;-1.76;76.00
78016;BME280;67223;51.102;5.882;2023-02-28T04:48:53;102816.84;;;-1.80;75.73
78016;BME280;67223;51.102;5.882;2023-02-28T04:51:20;102810.72;;;-1.85;75.89
78016;BME280;67223;51.102;5.882;2023-02-28T04:53:45;102816.81;;;-1.86;75.76
78016;BME280;67223;51.102;5.882;2023-02-28T04:56:13;102821.19;;;-1.80;75.92
78016;BME280;67223;51.102;5.882;2023-02-28T04:58:39;102819.47;;;-1.70;76.61
78016;BME280;67223;51.102;5.882;2023-02-28T05:01:21;102822.09;;;-1.70;75.05
78016;BME280;67223;51.102;5.882;2023-02-28T05:03:47;102820.31;;;-1.76;76.00
78016;BME280;67223;51.102;5.882;2023-02-28T05:06:13;102823.78;;;-1.83;75.20
78016;BME280;67223;51.102;5.882;2023-02-28T05:08:40;102822.94;;;-1.87;75.75
78016;BME280;67223;51.102;5.882;2023-02-28T05:11:29;102825.56;;;-1.76;76.04
78016;BME280;67223;51.102;5.882;2023-02-28T05:13:59;102833.41;;;-1.64;76.62
78016;BME280;67223;51.102;5.882;2023-02-28T05:16:25;102830.81;;;-1.50;75.80
78016;BME280;67223;51.102;5.882;2023-02-28T05:18:50;102826.44;;;-1.47;74.58
78016;BME280;67223;51.102;5.882;2023-02-28T05:21:27;102830.81;;;-1.46;74.84
78016;BME280;67223;51.102;5.882;2023-02-28T05:23:53;102837.78;;;-1.49;74.96
78016;BME280;67223;51.102;5.882;2023-02-28T05:26:19;102822.94;;;-1.68;74.58
78016;BME280;67223;51.102;5.882;2023-02-28T05:28:44;102823.81;;;-1.57;75.59
78016;BME280;67223;51.102;5.882;2023-02-28T05:31:13;102827.34;;;-1.55;73.75
78016;BME280;67223;51.102;5.882;2023-02-28T05:33:38;102831.69;;;-1.59;74.44
78016;BME280;67223;51.102;5.882;2023-02-28T05:36:05;102828.22;;;-1.55;74.35
78016;BME280;67223;51.102;5.882;2023-02-28T05:38:31;102827.31;;;-1.49;74.63
78016;BME280;67223;51.102;5.882;2023-02-28T05:40:56;102828.19;;;-1.37;74.82
78016;BME280;67223;51.102;5.882;2023-02-28T05:43:22;102826.44;;;-1.38;77.21
78016;BME280;67223;51.102;5.882;2023-02-28T05:45:48;102833.44;;;-1.58;75.06
78016;BME280;67223;51.102;5.882;2023-02-28T05:48:13;102837.78;;;-1.39;77.28
78016;BME280;67223;51.102;5.882;2023-02-28T05:50:39;102836.91;;;-1.48;75.55
78016;BME280;67223;51.102;5.882;2023-02-28T05:53:05;102836.94;;;-1.47;74.05
78016;BME280;67223;51.102;5.882;2023-02-28T05:55:30;102834.31;;;-1.48;73.34
78016;BME280;67223;51.102;5.882;2023-02-28T05:57:55;102834.31;;;-1.30;74.19
78016;BME280;67223;51.102;5.882;2023-02-28T06:00:21;102840.44;;;-1.45;71.80
78016;BME280;67223;51.102;5.882;2023-02-28T06:02:47;102841.28;;;-1.43;72.37
78016;BME280;67223;51.102;5.882;2023-02-28T06:05:15;102838.69;;;-1.37;71.32
78016;BME280;67223;51.102;5.882;2023-02-28T06:07:40;102836.03;;;-1.44;71.29
78016;BME280;67223;51.102;5.882;2023-02-28T06:10:06;102846.53;;;-1.34;71.39
78016;BME280;67223;51.102;5.882;2023-02-28T06:12:32;102839.53;;;-1.38;69.78
78016;BME280;67223;51.102;5.882;2023-02-28T06:14:57;102844.78;;;-1.33;71.32
78016;BME280;67223;51.102;5.882;2023-02-28T06:17:22;102840.41;;;-1.28;70.54
78016;BME280;67223;51.102;5.882;2023-02-28T06:19:48;102844.78;;;-1.42;71.33
78016;BME280;67223;51.102;5.882;2023-02-28T06:22:14;102855.28;;;-1.42;70.76
78016;BME280;67223;51.102;5.882;2023-02-28T06:24:39;102850.91;;;-1.37;70.17
78016;BME280;67223;51.102;5.882;2023-02-28T06:27:05;102862.25;;;-1.44;70.99
78016;BME280;67223;51.102;5.882;2023-02-28T06:29:32;102858.75;;;-1.48;71.05
78016;BME280;67223;51.102;5.882;2023-02-28T06:31:58;102860.53;;;-1.45;70.48
78016;BME280;67223;51.102;5.882;2023-02-28T06:34:23;102856.13;;;-1.57;71.06
78016;BME280;67223;51.102;5.882;2023-02-28T06:36:51;102860.50;;;-1.47;71.01
78016;BME280;67223;51.102;5.882;2023-02-28T06:39:17;102865.72;;;-1.59;70.76
78016;BME280;67223;51.102;5.882;2023-02-28T06:41:42;102864.00;;;-1.60;70.67
78016;BME280;67223;51.102;5.882;2023-02-28T06:44:12;102861.38;;;-1.63;71.78
78016;BME280;67223;51.102;5.882;2023-02-28T06:46:40;102863.97;;;-1.69;71.72
78016;BME280;67223;51.102;5.882;2023-02-28T06:49:06;102867.47;;;-1.59;72.71
78016;BME280;67223;51.102;5.882;2023-02-28T06:51:34;102864.84;;;-1.71;71.56
78016;BME280;67223;51.102;5.882;2023-02-28T06:53:59;102876.22;;;-1.57;71.84
78016;BME280;67223;51.102;5.882;2023-02-28T06:56:25;102884.06;;;-1.62;72.50
78016;BME280;67223;51.102;5.882;2023-02-28T06:58:51;102891.06;;;-1.61;73.01
78016;BME280;67223;51.102;5.882;2023-02-28T07:01:18;102888.44;;;-1.59;72.97
78016;BME280;67223;51.102;5.882;2023-02-28T07:03:44;102884.97;;;-1.64;73.21
78016;BME280;67223;51.102;5.882;2023-02-28T07:06:10;102889.31;;;-1.63;72.88
78016;BME280;67223;51.102;5.882;2023-02-28T07:08:35;102889.31;;;-1.53;72.68
78016;BME280;67223;51.102;5.882;2023-02-28T07:11:02;102895.41;;;-1.54;72.95
78016;BME280;67223;51.102;5.882;2023-02-28T07:13:27;102895.47;;;-1.31;73.99
78016;BME280;67223;51.102;5.882;2023-02-28T07:15:58;102896.34;;;-1.17;75.29
78016;BME280;67223;51.102;5.882;2023-02-28T07:18:24;102898.09;;;-1.31;73.65
78016;BME280;67223;51.102;5.882;2023-02-28T07:20:51;102890.19;;;-1.14;74.52
78016;BME280;67223;51.102;5.882;2023-02-28T07:23:16;102893.72;;;-1.02;74.94
78016;BME280;67223;51.102;5.882;2023-02-28T07:25:42;102898.97;;;-1.02;72.96
78016;BME280;67223;51.102;5.882;2023-02-28T07:28:07;102898.94;;;-0.99;72.19
78016;BME280;67223;51.102;5.882;2023-02-28T07:30:33;102901.56;;;-0.93;72.34
78016;BME280;67223;51.102;5.882;2023-02-28T07:32:58;102902.44;;;-0.97;71.73
78016;BME280;67223;51.102;5.882;2023-02-28T07:35:23;102901.56;;;-0.99;71.15
78016;BME280;67223;51.102;5.882;2023-02-28T07:37:49;102898.06;;;-0.95;69.98
78016;BME280;67223;51.102;5.882;2023-02-28T07:40:15;102897.16;;;-0.84;70.67
78016;BME280;67223;51.102;5.882;2023-02-28T07:42:41;102898.06;;;-0.82;69.47
78016;BME280;67223;51.102;5.882;2023-02-28T07:45:08;102907.66;;;-0.74;69.41
78016;BME280;67223;51.102;5.882;2023-02-28T07:47:39;102905.03;;;-0.66;69.54
78016;BME280;67223;51.102;5.882;2023-02-28T07:50:07;102902.34;;;-0.50;68.08
78016;BME280;67223;51.102;5.882;2023-02-28T07:52:32;102901.41;;;-0.23;66.83
78016;BME280;67223;51.102;5.882;2023-02-28T07:54:58;102904.75;;;0.08;65.99
78016;BME280;67223;51.102;5.882;2023-02-28T07:57:23;102901.16;;;0.27;65.36
78016;BME280;67223;51.102;5.882;2023-02-28T07:59:49;102907.09;;;0.55;63.75
78016;BME280;67223;51.102;5.882;2023-02-28T08:02:15;102911.19;;;0.91;62.53
78016;BME280;67223;51.102;5.882;2023-02-28T08:04:41;102900.44;;;1.17;62.71
78016;BME280;67223;51.102;5.882;2023-02-28T08:07:07;102912.25;;;1.62;60.96
78016;BME280;67223;51.102;5.882;2023-02-28T08:09:33;102908.75;;;1.61;60.00
78016;BME280;67223;51.102;5.882;2023-02-28T08:11:59;102916.31;;;1.90;58.14
78016;BME280;67223;51.102;5.882;2023-02-28T08:14:24;102924.00;;;2.07;57.73
78016;BME280;67223;51.102;5.882;2023-02-28T08:16:50;102911.50;;;2.24;57.32
78016;BME280;67223;51.102;5.882;2023-02-28T08:19:15;102913.78;;;2.48;57.12
78016;BME280;67223;51.102;5.882;2023-02-28T08:21:40;102919.41;;;2.81;56.07
78016;BME280;67223;51.102;5.882;2023-02-28T08:24:06;102916.25;;;3.60;53.48
78016;BME280;67223;51.102;5.882;2023-02-28T08:26:32;102916.03;;;3.72;52.16
78016;BME280;67223;51.102;5.882;2023-02-28T08:28:57;102917.41;;;4.31;49.86
78016;BME280;67223;51.102;5.882;2023-02-28T08:31:22;102922.50;;;4.39;49.53
78016;BME280;67223;51.102;5.882;2023-02-28T08:33:48;102922.16;;;4.54;50.04
78016;BME280;67223;51.102;5.882;2023-02-28T08:36:16;102927.75;;;4.79;48.13
78016;BME280;67223;51.102;5.882;2023-02-28T08:38:42;102918.03;;;5.15;46.49
78016;BME280;67223;51.102;5.882;2023-02-28T08:41:10;102917.41;;;5.39;44.81
78016;BME280;67223;51.102;5.882;2023-02-28T08:43:36;102916.47;;;5.42;43.93
78016;BME280;67223;51.102;5.882;2023-02-28T08:46:03;102922.44;;;5.48;43.09
78016;BME280;67223;51.102;5.882;2023-02-28T08:48:30;102919.13;;;6.05;43.30
78016;BME280;67223;51.102;5.882;2023-02-28T08:50:58;102918.22;;;6.06;42.88
78016;BME280;67223;51.102;5.882;2023-02-28T08:53:24;102915.41;;;6.11;42.38
78016;BME280;67223;51.102;5.882;2023-02-28T08:56:01;102906.31;;;6.19;42.00
78016;BME280;67223;51.102;5.882;2023-02-28T08:58:27;102902.03;;;6.43;40.99
78016;BME280;67223;51.102;5.882;2023-02-28T09:00:54;102905.84;;;6.88;39.91
78016;BME280;67223;51.102;5.882;2023-02-28T09:03:20;102897.50;;;7.01;38.98
78016;BME280;67223;51.102;5.882;2023-02-28T09:06:01;102896.34;;;7.34;37.26
78016;BME280;67223;51.102;5.882;2023-02-28T09:08:29;102900.34;;;7.21;37.37
78016;BME280;67223;51.102;5.882;2023-02-28T09:10:55;102900.56;;;7.15;37.30
78016;BME280;67223;51.102;5.882;2023-02-28T09:13:23;102902.22;;;7.92;35.51
78016;BME280;67223;51.102;5.882;2023-02-28T09:15:49;102908.72;;;8.75;34.71
78016;BME280;67223;51.102;5.882;2023-02-28T09:18:15;102901.22;;;7.71;34.47
78016;BME280;67223;51.102;5.882;2023-02-28T09:20:41;102896.63;;;7.74;34.30
78016;BME280;67223;51.102;5.882;2023-02-28T09:23:08;102896.09;;;8.36;34.27
78016;BME280;67223;51.102;5.882;2023-02-28T09:25:34;102896.31;;;8.07;33.53
78016;BME280;67223;51.102;5.882;2023-02-28T09:27:59;102904.94;;;8.58;32.73
78016;BME280;67223;51.102;5.882;2023-02-28T09:30:25;102898.06;;;8.75;31.93
78016;BME280;67223;51.102;5.882;2023-02-28T09:32:50;102901.91;;;8.68;30.95
78016;BME280;67223;51.102;5.882;2023-02-28T09:35:26;102896.53;;;8.91;31.96
78016;BME280;67223;51.102;5.882;2023-02-28T09:37:52;102896.25;;;7.85;32.07
78016;BME280;67223;51.102;5.882;2023-02-28T09:40:21;102886.34;;;8.57;31.48
78016;BME280;67223;51.102;5.882;2023-02-28T09:42:49;102887.75;;;9.09;30.84
78016;BME280;67223;51.102;5.882;2023-02-28T09:45:23;102893.88;;;8.24;31.27
78016;BME280;67223;51.102;5.882;2023-02-28T09:47:52;102895.72;;;8.67;30.60
78016;BME280;67223;51.102;5.882;2023-02-28T09:52:51;102885.09;;;9.49;29.22
78016;BME280;67223;51.102;5.882;2023-02-28T09:55:43;102880.84;;;8.40;27.49
78016;BME280;67223;51.102;5.882;2023-02-28T09:58:22;102891.63;;;8.80;27.48
78016;BME280;67223;51.102;5.882;2023-02-28T10:00:56;102880.22;;;8.33;27.91
78016;BME280;67223;51.102;5.882;2023-02-28T10:03:40;102889.09;;;9.60;27.06
78016;BME280;67223;51.102;5.882;2023-02-28T10:06:20;102875.44;;;9.06;27.84
78016;BME280;67223;51.102;5.882;2023-02-28T10:11:29;102885.50;;;9.20;26.42
78016;BME280;67223;51.102;5.882;2023-02-28T10:14:16;102877.28;;;9.25;25.67
78016;BME280;67223;51.102;5.882;2023-02-28T10:16:48;102883.56;;;8.38;27.84
78016;BME280;67223;51.102;5.882;2023-02-28T10:19:20;102889.28;;;8.73;26.85
78016;BME280;67223;51.102;5.882;2023-02-28T10:22:11;102884.00;;;9.54;26.39
78016;BME280;67223;51.102;5.882;2023-02-28T10:24:42;102877.97;;;9.10;26.12
78016;BME280;67223;51.102;5.882;2023-02-28T10:27:26;102883.59;;;9.02;26.45
78016;BME280;67223;51.102;5.882;2023-02-28T10:29:59;102882.00;;;9.98;26.56
78016;BME280;67223;51.102;5.882;2023-02-28T10:32:33;102880.91;;;10.58;26.52
78016;BME280;67223;51.102;5.882;2023-02-28T10:35:09;102879.59;;;10.30;25.05
78016;BME280;67223;51.102;5.882;2023-02-28T10:37:40;102877.44;;;10.74;25.65
78016;BME280;67223;51.102;5.882;2023-02-28T10:40:25;102887.84;;;10.06;25.93
78016;BME280;67223;51.102;5.882;2023-02-28T10:43:19;102883.69;;;10.38;25.59
78016;BME280;67223;51.102;5.882;2023-02-28T10:45:57;102883.06;;;9.75;25.67
78016;BME280;67223;51.102;5.882;2023-02-28T10:48:45;102872.00;;;10.21;25.41
78016;BME280;67223;51.102;5.882;2023-02-28T10:51:16;102882.03;;;9.77;25.74
78016;BME280;67223;51.102;5.882;2023-02-28T11:01:17;102865.63;;;9.27;28.72
78016;BME280;67223;51.102;5.882;2023-02-28T11:03:43;102865.50;;;11.33;26.05
78016;BME280;67223;51.102;5.882;2023-02-28T11:06:21;102871.22;;;10.19;25.57
78016;BME280;67223;51.102;5.882;2023-02-28T11:08:53;102856.59;;;10.81;26.33
78016;BME280;67223;51.102;5.882;2023-02-28T11:11:21;102881.75;;;10.22;25.60
78016;BME280;67223;51.102;5.882;2023-02-28T11:13:51;102860.13;;;9.71;29.16
78016;BME280;67223;51.102;5.882;2023-02-28T11:16:17;102873.41;;;8.91;25.99
78016;BME280;67223;51.102;5.882;2023-02-28T11:18:48;102861.97;;;9.10;27.06
78016;BME280;67223;51.102;5.882;2023-02-28T11:21:18;102859.81;;;10.16;26.06
78016;BME280;67223;51.102;5.882;2023-02-28T11:23:45;102858.88;;;9.39;25.39
78016;BME280;67223;51.102;5.882;2023-02-28T11:26:12;102849.47;;;10.27;25.78
78016;BME280;67223;51.102;5.882;2023-02-28T11:28:40;102850.13;;;10.32;26.35
78016;BME280;67223;51.102;5.882;2023-02-28T11:33:46;102842.28;;;11.16;24.73
78016;BME280;67223;51.102;5.882;2023-02-28T11:36:29;102857.97;;;9.98;25.83
78016;BME280;67223;51.102;5.882;2023-02-28T11:38:59;102839.78;;;11.31;24.59
78016;BME280;67223;51.102;5.882;2023-02-28T11:41:37;102839.22;;;11.07;25.02
78016;BME280;67223;51.102;5.882;2023-02-28T11:44:23;102836.38;;;10.58;25.36
78016;BME280;67223;51.102;5.882;2023-02-28T11:49:41;102840.88;;;9.83;26.22
78016;BME280;67223;51.102;5.882;2023-02-28T12:00:49;102837.81;;;10.29;26.06
78016;BME280;67223;51.102;5.882;2023-02-28T12:03:31;102831.03;;;10.58;25.45
78016;BME280;67223;51.102;5.882;2023-02-28T12:09:03;102831.13;;;10.74;26.34
78016;BME280;67223;51.102;5.882;2023-02-28T12:22:31;102829.06;;;8.47;28.89
78016;BME280;67223;51.102;5.882;2023-02-28T12:27:29;102818.72;;;9.03;29.13
78016;BME280;67223;51.102;5.882;2023-02-28T12:29:58;102823.88;;;9.46;29.17
78016;BME280;67223;51.102;5.882;2023-02-28T12:32:31;102819.25;;;8.91;29.97
78016;BME280;67223;51.102;5.882;2023-02-28T12:35:12;102827.59;;;8.61;30.65
78016;BME280;67223;51.102;5.882;2023-02-28T12:37:43;102817.94;;;7.92;31.19
78016;BME280;67223;51.102;5.882;2023-02-28T12:40:13;102822.00;;;7.56;32.98
78016;BME280;67223;51.102;5.882;2023-02-28T12:42:48;102810.34;;;7.12;33.10
78016;BME280;67223;51.102;5.882;2023-02-28T12:45:27;102807.41;;;7.19;32.73
78016;BME280;67223;51.102;5.882;2023-02-28T12:48:00;102810.44;;;7.09;33.66
78016;BME280;67223;51.102;5.882;2023-02-28T12:50:29;102811.47;;;7.53;32.57
78016;BME280;67223;51.102;5.882;2023-02-28T12:53:06;102803.44;;;6.81;33.95
78016;BME280;67223;51.102;5.882;2023-02-28T12:55:43;102807.69;;;6.87;34.00
78016;BME280;67223;51.102;5.882;2023-02-28T13:06:27;102789.28;;;7.30;33.54
78016;BME280;67223;51.102;5.882;2023-02-28T13:11:44;102769.78;;;7.07;34.01
78016;BME280;67223;51.102;5.882;2023-02-28T13:14:36;102763.34;;;7.37;34.28
78016;BME280;67223;51.102;5.882;2023-02-28T13:22:19;102767.06;;;6.83;33.83
78016;BME280;67223;51.102;5.882;2023-02-28T13:24:48;102768.22;;;6.50;33.73
78016;BME280;67223;51.102;5.882;2023-02-28T13:29:40;102765.53;;;6.52;34.31
78016;BME280;67223;51.102;5.882;2023-02-28T13:34:41;102771.22;;;6.39;34.55
78016;BME280;67223;51.102;5.882;2023-02-28T13:42:49;102760.31;;;6.48;35.93
78016;BME280;67223;51.102;5.882;2023-02-28T13:45:27;102756.34;;;6.62;36.23
78016;BME280;67223;51.102;5.882;2023-02-28T13:47:54;102755.97;;;6.46;34.71
78016;BME280;67223;51.102;5.882;2023-02-28T13:58:09;102752.38;;;6.22;34.56
78016;BME280;67223;51.102;5.882;2023-02-28T14:06:18;102759.16;;;6.31;37.87
78016;BME280;67223;51.102;5.882;2023-02-28T14:08:59;102752.47;;;6.18;37.67
78016;BME280;67223;51.102;5.882;2023-02-28T14:11:37;102741.63;;;6.25;42.20
78016;BME280;67223;51.102;5.882;2023-02-28T14:14:04;102743.84;;;6.13;39.22
78016;BME280;67223;51.102;5.882;2023-02-28T14:16:44;102738.03;;;6.00;38.95
78016;BME280;67223;51.102;5.882;2023-02-28T14:19:24;102731.66;;;5.78;38.00
78016;BME280;67223;51.102;5.882;2023-02-28T14:27:26;102734.94;;;5.87;38.92
78016;BME280;67223;51.102;5.882;2023-02-28T14:33:16;102735.34;;;6.28;38.74
78016;BME280;67223;51.102;5.882;2023-02-28T14:38:55;102734.28;;;5.50;36.56
78016;BME280;67223;51.102;5.882;2023-02-28T14:41:41;102736.19;;;5.45;37.17
78016;BME280;67223;51.102;5.882;2023-02-28T14:44:33;102729.03;;;6.05;36.45
78016;BME280;67223;51.102;5.882;2023-02-28T14:47:02;102727.22;;;6.08;36.27
78016;BME280;67223;51.102;5.882;2023-02-28T14:49:36;102722.78;;;5.79;37.20
78016;BME280;67223;51.102;5.882;2023-02-28T14:52:14;102721.06;;;5.78;36.18
78016;BME280;67223;51.102;5.882;2023-02-28T14:54:41;102719.53;;;5.69;35.78
78016;BME280;67223;51.102;5.882;2023-02-28T14:57:21;102731.13;;;5.67;37.03
78016;BME280;67223;51.102;5.882;2023-02-28T14:59:56;102729.06;;;5.76;35.77
78016;BME280;67223;51.102;5.882;2023-02-28T15:02:24;102727.69;;;5.92;35.96
78016;BME280;67223;51.102;5.882;2023-02-28T15:07:20;102717.16;;;5.89;35.61
78016;BME280;67223;51.102;5.882;2023-02-28T15:10:16;102709.34;;;5.85;35.77
78016;BME280;67223;51.102;5.882;2023-02-28T15:12:53;102722.91;;;5.74;36.66
78016;BME280;67223;51.102;5.882;2023-02-28T15:15:22;102725.56;;;5.74;37.89
78016;BME280;67223;51.102;5.882;2023-02-28T15:17:52;102715.34;;;5.91;36.65